sensor_id;sensor_type;location;lat;lon;timestamp;pressure;altitude;pressure_sealevel;temperature;humidity
80184;BME280;69682;52.138;5.440;2023-09-12T00:00:37;101385.09;;;20.01;82.59
80184;BME280;69682;52.138;5.440;2023-09-12T00:03:04;101391.50;;;19.92;82.60
80184;BME280;69682;52.138;5.440;2023-09-12T00:05:31;101384.72;;;19.88;82.64
80184;BME280;69682;52.138;5.440;2023-09-12T00:07:57;101385.59;;;19.96;82.68
80184;BME280;69682;52.138;5.440;2023-09-12T00:10:24;101381.00;;;19.97;82.44
80184;BME280;69682;52.138;5.440;2023-09-12T00:12:51;101376.47;;;19.98;82.27
80184;BME280;69682;52.138;5.440;2023-09-12T00:15:18;101377.47;;;19.96;82.04
80184;BME280;69682;52.138;5.440;2023-09-12T00:17:46;101360.91;;;19.91;82.03
80184;BME280;69682;52.138;5.440;2023-09-12T00:20:15;101362.72;;;19.74;83.09
80184;BME280;69682;52.138;5.440;2023-09-12T00:22:41;101360.84;;;19.75;82.78
80184;BME280;69682;52.138;5.440;2023-09-12T00:25:08;101363.22;;;19.78;82.96
80184;BME280;69682;52.138;5.440;2023-09-12T00:27:35;101363.72;;;19.73;82.54
80184;BME280;69682;52.138;5.440;2023-09-12T00:30:02;101359.66;;;19.69;83.38
80184;BME280;69682;52.138;5.440;2023-09-12T00:32:28;101354.75;;;19.73;82.93
80184;BME280;69682;52.138;5.440;2023-09-12T00:34:55;101346.50;;;19.74;82.83
80184;BME280;69682;52.138;5.440;2023-09-12T00:37:24;101354.09;;;19.71;82.77
80184;BME280;69682;52.138;5.440;2023-09-12T00:39:51;101353.91;;;19.72;82.48
80184;BME280;69682;52.138;5.440;2023-09-12T00:42:18;101357.13;;;19.68;82.46
80184;BME280;69682;52.138;5.440;2023-09-12T00:44:45;101357.72;;;19.62;82.43
80184;BME280;69682;52.138;5.440;2023-09-12T00:47:13;101366.34;;;19.57;82.67
80184;BME280;69682;52.138;5.440;2023-09-12T00:49:40;101364.47;;;19.58;83.06
80184;BME280;69682;52.138;5.440;2023-09-12T00:52:08;101369.72;;;19.59;82.68
80184;BME280;69682;52.138;5.440;2023-09-12T00:54:37;101373.59;;;19.57;82.27
80184;BME280;69682;52.138;5.440;2023-09-12T00:57:04;101361.06;;;19.56;82.54
80184;BME280;69682;52.138;5.440;2023-09-12T00:59:31;101366.28;;;19.49;82.20
80184;BME280;69682;52.138;5.440;2023-09-12T01:01:58;101369.88;;;19.23;83.35
80184;BME280;69682;52.138;5.440;2023-09-12T01:04:26;101373.91;;;19.19;83.51
80184;BME280;69682;52.138;5.440;2023-09-12T01:07:02;101370.75;;;19.24;83.23
80184;BME280;69682;52.138;5.440;2023-09-12T01:09:29;101366.84;;;19.18;83.32
80184;BME280;69682;52.138;5.440;2023-09-12T01:11:56;101374.19;;;19.08;83.92
80184;BME280;69682;52.138;5.440;2023-09-12T01:14:23;101370.25;;;19.02;83.98
80184;BME280;69682;52.138;5.440;2023-09-12T01:16:50;101366.03;;;19.00;83.93
80184;BME280;69682;52.138;5.440;2023-09-12T01:19:17;101368.59;;;19.01;83.91
80184;BME280;69682;52.138;5.440;2023-09-12T01:22:39;101364.41;;;19.07;83.83
80184;BME280;69682;52.138;5.440;2023-09-12T01:24:52;101367.63;;;19.11;83.11
80184;BME280;69682;52.138;5.440;2023-09-12T01:27:28;101368.13;;;19.06;83.51
80184;BME280;69682;52.138;5.440;2023-09-12T01:29:57;101369.94;;;19.05;83.26
80184;BME280;69682;52.138;5.440;2023-09-12T01:32:27;101377.91;;;19.07;82.89
80184;BME280;69682;52.138;5.440;2023-09-12T01:34:55;101374.19;;;19.08;82.71
80184;BME280;69682;52.138;5.440;2023-09-12T01:37:21;101371.44;;;19.00;83.12
80184;BME280;69682;52.138;5.440;2023-09-12T01:39:48;101372.13;;;19.02;82.95
80184;BME280;69682;52.138;5.440;2023-09-12T01:42:16;101371.91;;;18.95;83.25
80184;BME280;69682;52.138;5.440;2023-09-12T01:44:44;101360.59;;;18.92;83.48
80184;BME280;69682;52.138;5.440;2023-09-12T01:47:12;101363.63;;;18.89;83.41
80184;BME280;69682;52.138;5.440;2023-09-12T01:49:42;101363.22;;;18.83;83.56
80184;BME280;69682;52.138;5.440;2023-09-12T01:52:10;101361.06;;;18.87;83.65
80184;BME280;69682;52.138;5.440;2023-09-12T01:54:37;101366.47;;;18.87;83.52
80184;BME280;69682;52.138;5.440;2023-09-12T01:57:05;101362.22;;;18.84;83.60
80184;BME280;69682;52.138;5.440;2023-09-12T01:59:31;101360.31;;;18.77;83.73
80184;BME280;69682;52.138;5.440;2023-09-12T02:01:58;101356.81;;;18.67;84.00
80184;BME280;69682;52.138;5.440;2023-09-12T02:04:25;101358.38;;;18.69;83.82
80184;BME280;69682;52.138;5.440;2023-09-12T02:06:51;101359.78;;;18.73;83.81
80184;BME280;69682;52.138;5.440;2023-09-12T02:09:18;101353.22;;;18.76;83.74
80184;BME280;69682;52.138;5.440;2023-09-12T02:11:48;101354.00;;;18.68;83.92
80184;BME280;69682;52.138;5.440;2023-09-12T02:14:15;101350.28;;;18.69;84.14
80184;BME280;69682;52.138;5.440;2023-09-12T02:16:42;101354.22;;;18.75;83.91
80184;BME280;69682;52.138;5.440;2023-09-12T02:19:10;101350.69;;;18.74;84.06
80184;BME280;69682;52.138;5.440;2023-09-12T02:21:37;101353.06;;;18.77;83.83
80184;BME280;69682;52.138;5.440;2023-09-12T02:24:04;101351.66;;;18.73;84.05
80184;BME280;69682;52.138;5.440;2023-09-12T02:26:31;101351.28;;;18.68;84.16
80184;BME280;69682;52.138;5.440;2023-09-12T02:29:03;101347.38;;;18.63;84.28
80184;BME280;69682;52.138;5.440;2023-09-12T02:31:32;101353.56;;;18.37;84.64
80184;BME280;69682;52.138;5.440;2023-09-12T02:33:59;101353.03;;;18.33;85.21
80184;BME280;69682;52.138;5.440;2023-09-12T02:36:26;101354.09;;;18.41;85.10
80184;BME280;69682;52.138;5.440;2023-09-12T02:38:52;101352.63;;;18.28;85.02
80184;BME280;69682;52.138;5.440;2023-09-12T02:41:19;101359.25;;;18.16;85.50
80184;BME280;69682;52.138;5.440;2023-09-12T02:43:45;101366.19;;;18.01;85.80
80184;BME280;69682;52.138;5.440;2023-09-12T02:46:12;101365.41;;;17.90;86.52
80184;BME280;69682;52.138;5.440;2023-09-12T02:48:38;101350.94;;;17.91;86.99
80184;BME280;69682;52.138;5.440;2023-09-12T02:51:05;101356.09;;;18.03;86.31
80184;BME280;69682;52.138;5.440;2023-09-12T02:53:32;101361.03;;;18.07;86.01
80184;BME280;69682;52.138;5.440;2023-09-12T02:55:58;101358.56;;;18.14;85.72
80184;BME280;69682;52.138;5.440;2023-09-12T02:58:25;101366.44;;;18.07;85.36
80184;BME280;69682;52.138;5.440;2023-09-12T03:00:52;101365.34;;;18.00;85.62
80184;BME280;69682;52.138;5.440;2023-09-12T03:03:21;101358.78;;;18.03;85.70
80184;BME280;69682;52.138;5.440;2023-09-12T03:05:57;101359.19;;;18.08;85.30
80184;BME280;69682;52.138;5.440;2023-09-12T03:08:23;101363.28;;;18.12;85.47
80184;BME280;69682;52.138;5.440;2023-09-12T03:10:59;101366.19;;;18.19;84.90
80184;BME280;69682;52.138;5.440;2023-09-12T03:13:28;101366.03;;;18.20;84.72
80184;BME280;69682;52.138;5.440;2023-09-12T03:15:55;101364.34;;;18.19;84.19
80184;BME280;69682;52.138;5.440;2023-09-12T03:18:22;101360.81;;;18.19;84.40
80184;BME280;69682;52.138;5.440;2023-09-12T03:20:49;101362.66;;;18.18;84.19
80184;BME280;69682;52.138;5.440;2023-09-12T03:23:16;101365.66;;;18.15;84.23
80184;BME280;69682;52.138;5.440;2023-09-12T03:25:42;101365.81;;;18.13;84.44
80184;BME280;69682;52.138;5.440;2023-09-12T03:28:10;101372.34;;;18.11;84.24
80184;BME280;69682;52.138;5.440;2023-09-12T03:30:37;101366.50;;;18.15;84.37
80184;BME280;69682;52.138;5.440;2023-09-12T03:33:05;101358.25;;;18.17;83.77
80184;BME280;69682;52.138;5.440;2023-09-12T03:35:33;101353.03;;;18.15;83.42
80184;BME280;69682;52.138;5.440;2023-09-12T03:38:00;101353.66;;;18.09;83.79
80184;BME280;69682;52.138;5.440;2023-09-12T03:40:31;101345.69;;;18.08;84.15
80184;BME280;69682;52.138;5.440;2023-09-12T03:42:57;101348.56;;;18.06;84.31
80184;BME280;69682;52.138;5.440;2023-09-12T03:45:24;101354.72;;;17.99;84.52
80184;BME280;69682;52.138;5.440;2023-09-12T03:47:51;101355.16;;;17.94;84.58
80184;BME280;69682;52.138;5.440;2023-09-12T03:50:18;101351.91;;;17.90;84.59
80184;BME280;69682;52.138;5.440;2023-09-12T03:52:45;101346.69;;;17.89;84.74
80184;BME280;69682;52.138;5.440;2023-09-12T03:55:12;101346.22;;;17.93;84.60
80184;BME280;69682;52.138;5.440;2023-09-12T03:57:38;101347.47;;;17.99;84.38
80184;BME280;69682;52.138;5.440;2023-09-12T04:00:05;101338.94;;;18.04;84.55
80184;BME280;69682;52.138;5.440;2023-09-12T04:02:32;101346.31;;;18.02;84.75
80184;BME280;69682;52.138;5.440;2023-09-12T04:04:58;101347.16;;;18.02;84.59
80184;BME280;69682;52.138;5.440;2023-09-12T04:07:26;101350.03;;;18.01;84.45
80184;BME280;69682;52.138;5.440;2023-09-12T04:09:52;101348.00;;;18.03;84.59
80184;BME280;69682;52.138;5.440;2023-09-12T04:12:19;101345.47;;;18.01;84.50
80184;BME280;69682;52.138;5.440;2023-09-12T04:14:47;101352.00;;;17.99;84.54
80184;BME280;69682;52.138;5.440;2023-09-12T04:17:13;101349.31;;;17.99;84.18
80184;BME280;69682;52.138;5.440;2023-09-12T04:19:40;101347.84;;;17.86;84.39
80184;BME280;69682;52.138;5.440;2023-09-12T04:22:06;101342.63;;;17.75;85.03
80184;BME280;69682;52.138;5.440;2023-09-12T04:24:33;101344.47;;;17.75;85.22
80184;BME280;69682;52.138;5.440;2023-09-12T04:26:59;101337.94;;;17.77;85.94
80184;BME280;69682;52.138;5.440;2023-09-12T04:29:26;101330.56;;;17.79;85.73
80184;BME280;69682;52.138;5.440;2023-09-12T04:31:53;101324.03;;;17.82;85.89
80184;BME280;69682;52.138;5.440;2023-09-12T04:34:25;101322.75;;;17.86;85.86
80184;BME280;69682;52.138;5.440;2023-09-12T04:36:53;101325.25;;;17.87;85.47
80184;BME280;69682;52.138;5.440;2023-09-12T04:39:20;101327.28;;;17.85;85.19
80184;BME280;69682;52.138;5.440;2023-09-12T04:41:46;101330.72;;;17.78;85.70
80184;BME280;69682;52.138;5.440;2023-09-12T04:44:13;101324.81;;;17.64;86.02
80184;BME280;69682;52.138;5.440;2023-09-12T04:46:40;101325.88;;;17.54;86.28
80184;BME280;69682;52.138;5.440;2023-09-12T04:49:09;101327.16;;;17.49;86.63
80184;BME280;69682;52.138;5.440;2023-09-12T04:51:36;101322.72;;;17.58;86.59
80184;BME280;69682;52.138;5.440;2023-09-12T04:54:03;101323.44;;;17.60;86.51
80184;BME280;69682;52.138;5.440;2023-09-12T04:56:30;101328.09;;;17.58;86.79
80184;BME280;69682;52.138;5.440;2023-09-12T04:58:56;101328.47;;;17.45;86.64
80184;BME280;69682;52.138;5.440;2023-09-12T05:01:23;101325.63;;;17.47;87.04
80184;BME280;69682;52.138;5.440;2023-09-12T05:03:52;101315.94;;;17.54;86.84
80184;BME280;69682;52.138;5.440;2023-09-12T05:06:19;101319.72;;;17.61;86.75
80184;BME280;69682;52.138;5.440;2023-09-12T05:08:45;101318.19;;;17.59;86.62
80184;BME280;69682;52.138;5.440;2023-09-12T05:11:12;101312.41;;;17.54;86.76
80184;BME280;69682;52.138;5.440;2023-09-12T05:13:38;101315.94;;;17.54;86.44
80184;BME280;69682;52.138;5.440;2023-09-12T05:16:05;101328.41;;;17.55;86.77
80184;BME280;69682;52.138;5.440;2023-09-12T05:18:31;101334.81;;;17.54;86.64
80184;BME280;69682;52.138;5.440;2023-09-12T05:20:58;101325.03;;;17.53;86.83
80184;BME280;69682;52.138;5.440;2023-09-12T05:23:25;101341.88;;;17.55;86.75
80184;BME280;69682;52.138;5.440;2023-09-12T05:25:52;101341.03;;;17.55;86.39
80184;BME280;69682;52.138;5.440;2023-09-12T05:28:18;101338.50;;;17.53;86.52
80184;BME280;69682;52.138;5.440;2023-09-12T05:30:45;101342.59;;;17.57;86.71
80184;BME280;69682;52.138;5.440;2023-09-12T05:33:12;101333.50;;;17.58;86.49
80184;BME280;69682;52.138;5.440;2023-09-12T05:35:39;101343.31;;;17.59;86.38
80184;BME280;69682;52.138;5.440;2023-09-12T05:38:06;101344.16;;;17.60;86.24
80184;BME280;69682;52.138;5.440;2023-09-12T05:40:33;101342.44;;;17.59;86.32
80184;BME280;69682;52.138;5.440;2023-09-12T05:42:59;101338.22;;;17.56;86.43
80184;BME280;69682;52.138;5.440;2023-09-12T05:45:26;101343.44;;;17.58;86.23
80184;BME280;69682;52.138;5.440;2023-09-12T05:47:55;101347.28;;;17.55;86.55
80184;BME280;69682;52.138;5.440;2023-09-12T05:50:22;101343.75;;;17.55;86.78
80184;BME280;69682;52.138;5.440;2023-09-12T05:52:49;101339.06;;;17.57;86.37
80184;BME280;69682;52.138;5.440;2023-09-12T05:55:17;101343.19;;;17.51;86.66
80184;BME280;69682;52.138;5.440;2023-09-12T05:57:48;101340.19;;;17.54;86.65
80184;BME280;69682;52.138;5.440;2023-09-12T06:00:19;101329.22;;;17.65;86.84
80184;BME280;69682;52.138;5.440;2023-09-12T06:02:46;101342.22;;;17.70;86.66
80184;BME280;69682;52.138;5.440;2023-09-12T06:05:14;101340.25;;;17.72;86.11
80184;BME280;69682;52.138;5.440;2023-09-12T06:07:41;101348.75;;;17.67;86.69
80184;BME280;69682;52.138;5.440;2023-09-12T06:10:08;101355.56;;;17.71;86.94
80184;BME280;69682;52.138;5.440;2023-09-12T06:12:35;101355.41;;;17.73;86.55
80184;BME280;69682;52.138;5.440;2023-09-12T06:15:05;101361.66;;;17.74;86.58
80184;BME280;69682;52.138;5.440;2023-09-12T06:17:32;101374.69;;;17.78;86.54
80184;BME280;69682;52.138;5.440;2023-09-12T06:19:58;101371.56;;;17.73;86.56
80184;BME280;69682;52.138;5.440;2023-09-12T06:22:25;101373.00;;;17.67;86.57
80184;BME280;69682;52.138;5.440;2023-09-12T06:24:53;101379.00;;;17.61;87.25
80184;BME280;69682;52.138;5.440;2023-09-12T06:27:19;101374.19;;;17.65;87.25
80184;BME280;69682;52.138;5.440;2023-09-12T06:29:47;101372.03;;;17.68;87.27
80184;BME280;69682;52.138;5.440;2023-09-12T06:32:17;101373.72;;;17.69;87.59
80184;BME280;69682;52.138;5.440;2023-09-12T06:34:44;101377.84;;;17.74;87.06
80184;BME280;69682;52.138;5.440;2023-09-12T06:37:11;101374.50;;;17.89;86.41
80184;BME280;69682;52.138;5.440;2023-09-12T06:39:38;101368.09;;;17.90;86.63
80184;BME280;69682;52.138;5.440;2023-09-12T06:42:05;101378.34;;;17.87;86.75
80184;BME280;69682;52.138;5.440;2023-09-12T06:44:32;101374.50;;;17.89;86.82
80184;BME280;69682;52.138;5.440;2023-09-12T06:46:59;101376.19;;;17.90;86.96
80184;BME280;69682;52.138;5.440;2023-09-12T06:49:25;101376.59;;;17.96;86.97
80184;BME280;69682;52.138;5.440;2023-09-12T06:51:52;101375.88;;;17.93;87.12
80184;BME280;69682;52.138;5.440;2023-09-12T06:54:19;101377.44;;;17.96;87.24
80184;BME280;69682;52.138;5.440;2023-09-12T06:56:45;101375.25;;;18.00;87.40
80184;BME280;69682;52.138;5.440;2023-09-12T06:59:12;101379.88;;;17.89;87.58
80184;BME280;69682;52.138;5.440;2023-09-12T07:01:38;101381.75;;;17.89;87.48
80184;BME280;69682;52.138;5.440;2023-09-12T07:04:05;101381.88;;;17.87;87.99
80184;BME280;69682;52.138;5.440;2023-09-12T07:06:32;101384.25;;;17.90;87.73
80184;BME280;69682;52.138;5.440;2023-09-12T07:08:59;101392.91;;;17.94;87.47
80184;BME280;69682;52.138;5.440;2023-09-12T07:11:26;101388.38;;;17.95;87.63
80184;BME280;69682;52.138;5.440;2023-09-12T07:13:52;101394.13;;;18.00;87.94
80184;BME280;69682;52.138;5.440;2023-09-12T07:16:19;101388.06;;;17.98;88.03
80184;BME280;69682;52.138;5.440;2023-09-12T07:18:50;101391.44;;;18.00;87.87
80184;BME280;69682;52.138;5.440;2023-09-12T07:21:17;101383.75;;;18.05;87.61
80184;BME280;69682;52.138;5.440;2023-09-12T07:23:44;101374.22;;;18.10;87.48
80184;BME280;69682;52.138;5.440;2023-09-12T07:26:13;101370.34;;;18.13;87.46
80184;BME280;69682;52.138;5.440;2023-09-12T07:28:42;101382.69;;;18.15;87.51
80184;BME280;69682;52.138;5.440;2023-09-12T07:31:09;101387.78;;;18.19;87.39
80184;BME280;69682;52.138;5.440;2023-09-12T07:33:35;101389.94;;;18.15;87.53
80184;BME280;69682;52.138;5.440;2023-09-12T07:36:03;101382.00;;;18.13;87.92
80184;BME280;69682;52.138;5.440;2023-09-12T07:38:29;101382.69;;;18.15;87.83
80184;BME280;69682;52.138;5.440;2023-09-12T07:41:01;101389.31;;;18.21;87.76
80184;BME280;69682;52.138;5.440;2023-09-12T07:43:29;101390.00;;;18.23;87.16
80184;BME280;69682;52.138;5.440;2023-09-12T07:45:56;101388.50;;;18.21;87.87
80184;BME280;69682;52.138;5.440;2023-09-12T07:48:24;101396.72;;;18.19;88.31
80184;BME280;69682;52.138;5.440;2023-09-12T07:50:51;101395.88;;;18.19;87.13
80184;BME280;69682;52.138;5.440;2023-09-12T07:53:18;101401.66;;;18.24;87.93
80184;BME280;69682;52.138;5.440;2023-09-12T07:55:45;101396.31;;;18.32;88.00
80184;BME280;69682;52.138;5.440;2023-09-12T07:58:16;101386.16;;;18.44;86.86
80184;BME280;69682;52.138;5.440;2023-09-12T08:00:45;101380.50;;;18.55;87.56
80184;BME280;69682;52.138;5.440;2023-09-12T08:03:12;101392.22;;;18.64;87.13
80184;BME280;69682;52.138;5.440;2023-09-12T08:05:39;101392.75;;;18.67;87.09
80184;BME280;69682;52.138;5.440;2023-09-12T08:08:05;101397.69;;;18.72;87.18
80184;BME280;69682;52.138;5.440;2023-09-12T08:10:32;101405.72;;;18.81;87.18
80184;BME280;69682;52.138;5.440;2023-09-12T08:12:59;101406.97;;;18.87;87.16
80184;BME280;69682;52.138;5.440;2023-09-12T08:15:26;101413.44;;;18.94;86.93
80184;BME280;69682;52.138;5.440;2023-09-12T08:17:54;101426.00;;;19.03;86.68
80184;BME280;69682;52.138;5.440;2023-09-12T08:20:20;101419.97;;;19.10;86.59
80184;BME280;69682;52.138;5.440;2023-09-12T08:22:47;101415.78;;;19.15;86.73
80184;BME280;69682;52.138;5.440;2023-09-12T08:25:15;101414.28;;;19.21;86.32
80184;BME280;69682;52.138;5.440;2023-09-12T08:27:42;101411.09;;;19.25;86.82
80184;BME280;69682;52.138;5.440;2023-09-12T08:30:11;101416.88;;;19.31;86.57
80184;BME280;69682;52.138;5.440;2023-09-12T08:32:40;101412.69;;;19.36;86.43
80184;BME280;69682;52.138;5.440;2023-09-12T08:35:11;101412.19;;;19.41;86.34
80184;BME280;69682;52.138;5.440;2023-09-12T08:37:41;101415.78;;;19.49;86.16
80184;BME280;69682;52.138;5.440;2023-09-12T08:40:09;101422.72;;;19.52;85.92
80184;BME280;69682;52.138;5.440;2023-09-12T08:42:39;101410.94;;;19.61;85.85
80184;BME280;69682;52.138;5.440;2023-09-12T08:45:17;101409.34;;;19.68;85.25
80184;BME280;69682;52.138;5.440;2023-09-12T08:47:49;101411.38;;;19.74;85.18
80184;BME280;69682;52.138;5.440;2023-09-12T08:50:17;101407.34;;;19.79;85.05
80184;BME280;69682;52.138;5.440;2023-09-12T08:52:45;101410.22;;;19.85;84.85
80184;BME280;69682;52.138;5.440;2023-09-12T08:55:31;101410.25;;;19.93;84.67
80184;BME280;69682;52.138;5.440;2023-09-12T08:58:05;101412.47;;;19.98;84.20
80184;BME280;69682;52.138;5.440;2023-09-12T09:00:32;101404.38;;;19.98;83.52
80184;BME280;69682;52.138;5.440;2023-09-12T09:03:00;101406.03;;;19.99;84.31
80184;BME280;69682;52.138;5.440;2023-09-12T09:05:27;101406.91;;;20.08;84.56
80184;BME280;69682;52.138;5.440;2023-09-12T09:07:55;101405.41;;;20.13;83.66
80184;BME280;69682;52.138;5.440;2023-09-12T09:10:23;101401.19;;;20.19;82.99
80184;BME280;69682;52.138;5.440;2023-09-12T09:13:12;101404.41;;;20.23;83.17
80184;BME280;69682;52.138;5.440;2023-09-12T09:15:39;101404.06;;;20.26;82.69
80184;BME280;69682;52.138;5.440;2023-09-12T09:18:09;101406.97;;;20.32;82.55
80184;BME280;69682;52.138;5.440;2023-09-12T09:20:38;101412.38;;;20.40;82.59
80184;BME280;69682;52.138;5.440;2023-09-12T09:23:06;101417.78;;;20.40;81.91
80184;BME280;69682;52.138;5.440;2023-09-12T09:25:38;101414.94;;;20.42;81.56
80184;BME280;69682;52.138;5.440;2023-09-12T09:28:20;101416.00;;;20.57;82.31
80184;BME280;69682;52.138;5.440;2023-09-12T09:30:49;101418.88;;;20.64;81.33
80184;BME280;69682;52.138;5.440;2023-09-12T09:33:18;101425.28;;;20.79;81.48
80184;BME280;69682;52.138;5.440;2023-09-12T09:35:47;101423.28;;;20.90;80.59
80184;BME280;69682;52.138;5.440;2023-09-12T09:38:14;101422.09;;;21.00;80.66
80184;BME280;69682;52.138;5.440;2023-09-12T09:40:44;101428.31;;;21.17;80.21
80184;BME280;69682;52.138;5.440;2023-09-12T09:43:11;101423.56;;;21.19;79.95
80184;BME280;69682;52.138;5.440;2023-09-12T09:45:44;101429.31;;;21.24;80.50
80184;BME280;69682;52.138;5.440;2023-09-12T09:48:19;101423.72;;;21.34;79.88
80184;BME280;69682;52.138;5.440;2023-09-12T09:50:46;101424.06;;;21.31;79.24
80184;BME280;69682;52.138;5.440;2023-09-12T09:53:13;101425.72;;;21.32;78.94
80184;BME280;69682;52.138;5.440;2023-09-12T09:55:40;101423.22;;;21.39;79.16
80184;BME280;69682;52.138;5.440;2023-09-12T09:58:08;101422.47;;;21.61;79.72
80184;BME280;69682;52.138;5.440;2023-09-12T10:00:36;101421.59;;;21.69;77.51
80184;BME280;69682;52.138;5.440;2023-09-12T10:03:05;101427.59;;;21.56;78.27
80184;BME280;69682;52.138;5.440;2023-09-12T10:05:33;101426.56;;;21.49;78.44
80184;BME280;69682;52.138;5.440;2023-09-12T10:08:02;101430.16;;;21.41;78.50
80184;BME280;69682;52.138;5.440;2023-09-12T10:10:30;101430.81;;;21.35;78.28
80184;BME280;69682;52.138;5.440;2023-09-12T10:12:58;101432.00;;;21.41;78.57
80184;BME280;69682;52.138;5.440;2023-09-12T10:15:42;101433.88;;;21.48;78.46
80184;BME280;69682;52.138;5.440;2023-09-12T10:18:14;101437.25;;;21.50;78.60
80184;BME280;69682;52.138;5.440;2023-09-12T10:20:58;101437.25;;;21.50;78.30
80184;BME280;69682;52.138;5.440;2023-09-12T10:24:06;101439.16;;;21.42;78.09
80184;BME280;69682;52.138;5.440;2023-09-12T10:26:26;101435.91;;;21.46;78.57
80184;BME280;69682;52.138;5.440;2023-09-12T10:28:54;101430.97;;;21.50;78.63
80184;BME280;69682;52.138;5.440;2023-09-12T10:31:22;101438.25;;;21.49;77.71
80184;BME280;69682;52.138;5.440;2023-09-12T10:33:53;101424.19;;;21.54;77.77
80184;BME280;69682;52.138;5.440;2023-09-12T10:36:20;101420.06;;;21.66;76.83
80184;BME280;69682;52.138;5.440;2023-09-12T10:38:49;101407.13;;;21.76;76.28
80184;BME280;69682;52.138;5.440;2023-09-12T10:41:18;101414.69;;;21.97;75.77
80184;BME280;69682;52.138;5.440;2023-09-12T10:43:47;101416.34;;;22.07;74.85
80184;BME280;69682;52.138;5.440;2023-09-12T10:46:16;101426.63;;;22.19;74.29
80184;BME280;69682;52.138;5.440;2023-09-12T10:48:43;101425.78;;;22.19;73.36
80184;BME280;69682;52.138;5.440;2023-09-12T10:51:11;101423.63;;;22.37;72.86
80184;BME280;69682;52.138;5.440;2023-09-12T10:53:45;101424.97;;;22.41;72.54
80184;BME280;69682;52.138;5.440;2023-09-12T10:59:15;101438.88;;;22.84;72.50
80184;BME280;69682;52.138;5.440;2023-09-12T11:01:44;101442.50;;;23.00;71.33
80184;BME280;69682;52.138;5.440;2023-09-12T11:06:47;101436.84;;;23.24;71.89
80184;BME280;69682;52.138;5.440;2023-09-12T11:09:24;101431.41;;;23.39;70.56
80184;BME280;69682;52.138;5.440;2023-09-12T11:11:56;101432.91;;;23.12;69.69
80184;BME280;69682;52.138;5.440;2023-09-12T11:14:23;101437.06;;;23.00;70.71
80184;BME280;69682;52.138;5.440;2023-09-12T11:19:46;101427.47;;;22.89;71.33
80184;BME280;69682;52.138;5.440;2023-09-12T11:22:27;101415.25;;;23.08;69.88
80184;BME280;69682;52.138;5.440;2023-09-12T11:24:54;101410.78;;;23.30;68.73
80184;BME280;69682;52.138;5.440;2023-09-12T11:27:43;101407.78;;;23.25;68.90
80184;BME280;69682;52.138;5.440;2023-09-12T11:30:11;101405.44;;;23.22;68.54
80184;BME280;69682;52.138;5.440;2023-09-12T11:32:38;101401.69;;;23.23;68.13
80184;BME280;69682;52.138;5.440;2023-09-12T11:35:08;101407.41;;;23.43;67.17
80184;BME280;69682;52.138;5.440;2023-09-12T11:37:35;101394.34;;;23.23;66.99
80184;BME280;69682;52.138;5.440;2023-09-12T11:42:40;101400.19;;;23.35;66.86
80184;BME280;69682;52.138;5.440;2023-09-12T11:45:09;101404.59;;;23.21;67.12
80184;BME280;69682;52.138;5.440;2023-09-12T11:47:43;101406.63;;;23.04;67.83
80184;BME280;69682;52.138;5.440;2023-09-12T11:50:28;101403.06;;;23.04;67.18
80184;BME280;69682;52.138;5.440;2023-09-12T11:53:02;101400.16;;;23.20;67.53
80184;BME280;69682;52.138;5.440;2023-09-12T11:55:31;101393.53;;;23.52;66.98
80184;BME280;69682;52.138;5.440;2023-09-12T11:57:58;101400.09;;;23.58;65.60
80184;BME280;69682;52.138;5.440;2023-09-12T12:00:25;101401.13;;;23.42;66.94
80184;BME280;69682;52.138;5.440;2023-09-12T12:02:54;101400.66;;;23.68;65.98
80184;BME280;69682;52.138;5.440;2023-09-12T12:05:21;101405.13;;;23.91;65.62
80184;BME280;69682;52.138;5.440;2023-09-12T12:07:49;101398.53;;;24.36;64.79
80184;BME280;69682;52.138;5.440;2023-09-12T12:10:17;101396.38;;;24.32;64.93
80184;BME280;69682;52.138;5.440;2023-09-12T12:12:44;101392.38;;;24.49;65.69
80184;BME280;69682;52.138;5.440;2023-09-12T12:15:12;101393.63;;;24.46;63.92
80184;BME280;69682;52.138;5.440;2023-09-12T12:17:42;101394.34;;;23.97;63.42
80184;BME280;69682;52.138;5.440;2023-09-12T12:20:10;101384.22;;;23.76;65.36
80184;BME280;69682;52.138;5.440;2023-09-12T12:22:38;101385.13;;;23.98;65.51
80184;BME280;69682;52.138;5.440;2023-09-12T12:25:10;101377.47;;;24.09;65.52
80184;BME280;69682;52.138;5.440;2023-09-12T12:27:37;101373.13;;;23.93;65.86
80184;BME280;69682;52.138;5.440;2023-09-12T12:30:07;101371.03;;;24.10;66.32
80184;BME280;69682;52.138;5.440;2023-09-12T12:32:45;101376.69;;;24.30;64.52
80184;BME280;69682;52.138;5.440;2023-09-12T12:35:23;101378.19;;;24.54;63.72
80184;BME280;69682;52.138;5.440;2023-09-12T12:38:11;101375.31;;;24.62;63.09
80184;BME280;69682;52.138;5.440;2023-09-12T12:40:39;101371.19;;;24.44;61.87
80184;BME280;69682;52.138;5.440;2023-09-12T12:43:18;101366.78;;;24.65;61.15
80184;BME280;69682;52.138;5.440;2023-09-12T12:45:56;101365.81;;;24.79;62.21
80184;BME280;69682;52.138;5.440;2023-09-12T12:48:34;101362.25;;;24.79;62.61
80184;BME280;69682;52.138;5.440;2023-09-12T12:51:22;101363.47;;;25.04;62.20
80184;BME280;69682;52.138;5.440;2023-09-12T12:54:03;101357.19;;;24.76;62.35
80184;BME280;69682;52.138;5.440;2023-09-12T12:56:30;101357.72;;;24.64;62.78
80184;BME280;69682;52.138;5.440;2023-09-12T12:58:59;101361.75;;;24.68;62.70
80184;BME280;69682;52.138;5.440;2023-09-12T13:01:29;101361.00;;;24.81;62.20
80184;BME280;69682;52.138;5.440;2023-09-12T13:03:56;101367.75;;;24.85;62.55
80184;BME280;69682;52.138;5.440;2023-09-12T13:06:26;101366.69;;;24.80;61.12
80184;BME280;69682;52.138;5.440;2023-09-12T13:08:54;101364.09;;;24.50;60.69